createdAt,value
2023-03-12T00:05:52.459Z,18.14
2023-03-12T00:15:58.644Z,18.12
2023-03-12T00:26:04.998Z,18.12
2023-03-12T00:36:11.228Z,18.09
2023-03-12T00:46:19.015Z,18.08
2023-03-12T00:56:25.161Z,18.10
2023-03-12T01:06:30.885Z,18.10
2023-03-12T01:16:37.161Z,18.09
2023-03-12T01:26:43.037Z,18.09
2023-03-12T01:36:49.315Z,18.09
2023-03-12T01:46:55.508Z,18.09
2023-03-12T01:57:01.418Z,18.07
2023-03-12T02:07:07.951Z,18.07
2023-03-12T02:17:13.877Z,18.04
2023-03-12T02:27:19.984Z,18.04
2023-03-12T02:37:26.089Z,18.03
2023-03-12T02:47:33.030Z,18.03
2023-03-12T02:57:38.951Z,18.04
2023-03-12T03:07:45.173Z,18.05
2023-03-12T03:17:51.277Z,18.03
2023-03-12T03:27:57.225Z,18.07
2023-03-12T03:38:03.308Z,18.07
2023-03-12T03:48:09.012Z,18.08
2023-03-12T03:58:15.109Z,18.18
2023-03-12T04:08:21.262Z,18.18
2023-03-12T04:18:27.402Z,18.17
2023-03-12T04:28:33.738Z,18.14
2023-03-12T04:38:39.863Z,18.14
2023-03-12T04:48:46.563Z,18.14
2023-03-12T04:58:53.450Z,18.17
2023-03-12T05:09:00.082Z,18.17
2023-03-12T05:19:06.409Z,18.17
2023-03-12T05:29:13.052Z,18.20
2023-03-12T05:39:19.844Z,18.18
2023-03-12T05:49:26.185Z,18.18
2023-03-12T05:59:32.697Z,18.17
2023-03-12T06:09:39.319Z,18.17
2023-03-12T06:19:45.350Z,18.14
2023-03-12T06:29:51.803Z,18.14
2023-03-12T06:39:58.570Z,18.16
2023-03-12T06:50:04.955Z,18.16
2023-03-12T07:00:11.462Z,18.14
2023-03-12T07:10:18.037Z,18.13
2023-03-12T07:20:24.936Z,18.18
2023-03-12T07:30:31.761Z,18.22
2023-03-12T07:40:38.348Z,18.26
2023-03-12T07:50:41.807Z,18.26
2023-03-12T08:00:44.418Z,8.53
2023-03-12T08:10:52.334Z,5.61
2023-03-12T08:21:02.078Z,14.95
2023-03-12T08:31:09.678Z,14.95
2023-03-12T08:41:16.732Z,16.37
2023-03-12T08:51:23.871Z,17.70
2023-03-12T09:01:30.068Z,17.70
2023-03-12T09:11:37.052Z,18.12
2023-03-12T09:21:44.010Z,18.27
2023-03-12T09:31:50.688Z,18.27
2023-03-12T09:41:57.033Z,18.40
2023-03-12T09:52:03.908Z,18.46
2023-03-12T10:02:10.228Z,18.46
2023-03-12T10:12:16.240Z,18.30
2023-03-12T10:22:23.242Z,18.05
2023-03-12T10:32:29.768Z,18.05
2023-03-12T10:42:36.467Z,18.02
2023-03-12T10:52:42.532Z,18.02
2023-03-12T11:02:48.884Z,17.98
2023-03-12T11:12:57.080Z,17.99
2023-03-12T11:23:03.596Z,17.99
2023-03-12T11:33:13.171Z,17.99
2023-03-12T11:43:32.343Z,17.99
2023-03-12T11:53:30.691Z,17.96
2023-03-12T12:03:40.110Z,17.91
2023-03-12T12:13:46.517Z,17.89
2023-03-12T12:23:53.128Z,17.89
2023-03-12T12:33:59.394Z,17.88
2023-03-12T12:44:06.685Z,17.90
2023-03-12T12:54:13.476Z,17.90
2023-03-12T13:04:20.272Z,17.89
2023-03-12T13:14:26.358Z,17.89
2023-03-12T13:24:32.794Z,17.92
2023-03-12T13:34:39.333Z,17.92
2023-03-12T13:44:45.522Z,17.92
2023-03-12T13:54:52.362Z,17.90
2023-03-12T14:04:58.976Z,17.90
2023-03-12T14:15:04.936Z,17.90
2023-03-12T14:25:12.080Z,17.90
2023-03-12T14:35:18.566Z,17.90
2023-03-12T14:45:25.264Z,17.89
2023-03-12T14:55:32.420Z,17.89
2023-03-12T15:05:38.086Z,17.89
2023-03-12T15:15:44.537Z,17.86
2023-03-12T15:25:50.513Z,17.89
2023-03-12T15:35:57.281Z,17.88
2023-03-12T15:46:03.687Z,17.88
2023-03-12T15:56:10.146Z,17.86
2023-03-12T16:06:17.027Z,17.86
2023-03-12T16:16:23.456Z,17.85
2023-03-12T16:26:29.866Z,17.85
2023-03-12T16:36:37.046Z,17.85
2023-03-12T16:46:43.852Z,17.84
2023-03-12T16:56:50.230Z,17.85
2023-03-12T17:06:57.732Z,17.84
2023-03-12T17:17:04.438Z,17.81
2023-03-12T17:27:11.231Z,17.82
2023-03-12T17:37:17.679Z,17.82
2023-03-12T17:47:24.431Z,17.82
2023-03-12T17:57:30.913Z,17.82
2023-03-12T18:07:37.845Z,17.82
2023-03-12T18:17:44.806Z,17.82
2023-03-12T18:27:51.181Z,17.82
2023-03-12T18:37:57.775Z,17.81
2023-03-12T18:48:04.399Z,17.82
2023-03-12T18:58:10.699Z,17.82
2023-03-12T19:08:17.392Z,17.82
2023-03-12T19:18:24.181Z,17.81
2023-03-12T19:28:30.765Z,17.96
2023-03-12T19:38:37.139Z,17.96
2023-03-12T19:48:43.716Z,17.96
2023-03-12T19:58:50.121Z,17.95
2023-03-12T20:08:56.709Z,17.92
2023-03-12T20:19:03.279Z,17.94
2023-03-12T20:29:09.970Z,17.99
2023-03-12T20:39:16.498Z,17.98
2023-03-12T20:49:23.381Z,17.98
2023-03-12T20:59:29.941Z,17.98
2023-03-12T21:09:36.514Z,18.00
2023-03-12T21:19:42.740Z,17.99
2023-03-12T21:29:49.526Z,18.02
2023-03-12T21:39:55.630Z,18.02
2023-03-12T21:50:02.064Z,18.02
2023-03-12T22:00:08.393Z,18.13
2023-03-12T22:10:14.868Z,18.17
2023-03-12T22:20:21.050Z,18.17
2023-03-12T22:30:26.988Z,18.25
2023-03-12T22:40:32.819Z,18.31
2023-03-12T22:50:38.945Z,18.45
2023-03-12T23:00:44.885Z,18.45
2023-03-12T23:10:50.912Z,18.46
2023-03-12T23:20:57.093Z,18.45
2023-03-12T23:31:03.286Z,18.45
2023-03-12T23:41:09.334Z,18.45
2023-03-12T23:51:15.578Z,18.45
